Time;durP1;ratioP1;P1;durP2;ratioP2;P2;SDS_P1;SDS_P2;PMS_P1;PMS_P2;Temp;Humidity;BMP_temperature;BMP_pressure;BME280_temperature;BME280_humidity;BME280_pressure;Samples;Min_cycle;Max_cycle;Signal;HPM_P1;HPM_P2
2022/10/05 00:01:46;;;;;;;6.53;2.47;;;16.90;99.90;;;;;;5031400;28;20056;-69
2022/10/05 00:04:18;;;;;;;2.63;1.48;;;16.90;99.90;;;;;;5033505;28;20528;-69
2022/10/05 00:07:04;;;;;;;;;;;16.90;99.90;;;;;;5033640;28;20030;-70
2022/10/05 00:09:31;;;;;;;3.72;1.60;;;16.90;99.90;;;;;;5024791;28;19909;-69
2022/10/05 00:11:57;;;;;;;2.50;1.42;;;16.80;99.90;;;;;;5023782;28;20483;-70
2022/10/05 00:14:32;;;;;;;4.57;1.88;;;16.90;99.90;;;;;;5013767;28;20025;-70
2022/10/05 00:16:57;;;;;;;2.95;1.23;;;16.80;99.90;;;;;;5030589;28;20021;-69
2022/10/05 00:19:35;;;;;;;4.93;2.08;;;16.80;99.90;;;;;;5032602;28;20038;-70
2022/10/05 00:22:16;;;;;;;5.75;2.15;;;16.80;99.90;;;;;;5031882;28;20155;-70
2022/10/05 00:38:09;;;;;;;2.47;1.57;;;16.80;99.90;;;;;;5021533;28;20053;-70
2022/10/05 00:40:47;;;;;;;3.58;1.30;;;16.80;99.90;;;;;;5031121;28;20030;-70
2022/10/05 00:43:31;;;;;;;5.00;1.63;;;16.80;99.90;;;;;;5029084;28;20025;-70
2022/10/05 00:46:07;;;;;;;2.35;1.50;;;16.80;99.90;;;;;;5027378;28;20120;-70
2022/10/05 00:48:47;;;;;;;3.15;1.40;;;16.80;99.90;;;;;;5034777;28;20697;-70
2022/10/05 00:51:17;;;;;;;3.05;1.80;;;16.80;99.90;;;;;;5040075;28;20378;-70
2022/10/05 00:53:59;;;;;;;2.25;1.10;;;16.80;99.90;;;;;;5039433;28;20029;-71
2022/10/05 00:56:34;;;;;;;;;;;16.80;99.90;;;;;;5040392;28;20467;-70
2022/10/05 00:59:27;;;;;;;6.00;1.73;;;16.80;99.90;;;;;;5040234;28;19921;-69
2022/10/05 01:02:14;;;;;;;2.60;1.23;;;16.80;99.90;;;;;;5036752;28;20023;-70
2022/10/05 01:04:43;;;;;;;3.03;1.30;;;16.70;99.90;;;;;;5037473;28;20504;-69
2022/10/05 01:07:32;;;;;;;1.55;1.23;;;16.70;99.90;;;;;;5041780;28;20474;-69
2022/10/05 01:10:07;;;;;;;3.28;1.42;;;16.80;99.90;;;;;;5039298;28;20040;-69
2022/10/05 01:12:53;;;;;;;3.38;1.42;;;16.80;99.90;;;;;;5037580;28;20084;-69
2022/10/05 01:15:47;;;;;;;7.85;1.83;;;16.80;99.90;;;;;;5039491;28;20026;-70
2022/10/05 01:18:23;;;;;;;1.92;1.05;;;16.80;99.90;;;;;;5041730;28;20501;-69
2022/10/05 01:21:04;;;;;;;5.03;2.10;;;16.70;99.90;;;;;;5041903;28;20018;-69
2022/10/05 01:23:54;;;;;;;5.85;2.60;;;16.70;99.90;;;;;;5041747;28;20060;-69
2022/10/05 01:26:54;;;;;;;2.30;1.42;;;16.70;99.90;;;;;;5039497;28;20582;-69
2022/10/05 01:29:21;;;;;;;4.93;1.80;;;16.70;99.90;;;;;;5035472;28;20121;-69
2022/10/05 01:32:01;;;;;;;2.25;1.25;;;16.70;99.90;;;;;;5036837;28;20033;-70
2022/10/05 01:34:52;;;;;;;3.22;1.23;;;16.70;99.90;;;;;;5038853;28;20036;-69
2022/10/05 01:37:59;;;;;;;4.55;2.00;;;16.70;99.90;;;;;;5038647;28;20030;-69
2022/10/05 01:40:49;;;;;;;1.55;1.08;;;16.70;99.90;;;;;;5034415;28;20068;-69
2022/10/05 01:43:40;;;;;;;3.45;1.40;;;16.70;99.90;;;;;;5037460;28;20033;-69
2022/10/05 01:46:19;;;;;;;5.20;2.22;;;16.70;99.90;;;;;;5040659;28;20026;-69
2022/10/05 01:49:22;;;;;;;3.72;1.02;;;16.70;99.90;;;;;;5039374;28;20033;-70
2022/10/05 01:52:24;;;;;;;4.47;1.27;;;16.70;99.90;;;;;;5040643;28;20033;-69
2022/10/05 01:55:05;;;;;;;1.83;1.08;;;16.70;99.90;;;;;;5040865;28;20119;-69
2022/10/05 01:57:39;;;;;;;2.35;1.40;;;16.70;99.90;;;;;;5038508;28;20357;-69
2022/10/05 02:00:14;;;;;;;4.18;1.58;;;16.70;99.90;;;;;;5037576;28;20044;-70
2022/10/05 02:02:48;;;;;;;3.90;1.30;;;16.70;99.90;;;;;;5039067;28;20030;-70
2022/10/05 02:05:25;;;;;;;1.92;1.35;;;16.70;99.90;;;;;;5037683;28;20056;-69
2022/10/05 02:07:56;;;;;;;2.60;1.27;;;16.70;99.90;;;;;;5042581;28;20041;-69
2022/10/05 02:10:27;;;;;;;1.23;1.08;;;16.70;99.90;;;;;;5043821;28;20030;-69
2022/10/05 02:13:01;;;;;;;3.20;1.27;;;16.70;99.90;;;;;;5040432;28;20449;-69
2022/10/05 02:15:40;;;;;;;1.60;1.40;;;16.70;99.90;;;;;;5041744;28;20033;-69
2022/10/05 02:18:15;;;;;;;3.65;1.40;;;16.70;99.90;;;;;;5042722;28;20049;-69
2022/10/05 02:20:42;;;;;;;1.98;0.95;;;16.70;99.90;;;;;;5040033;28;20065;-69
2022/10/05 02:23:15;;;;;;;6.97;1.23;;;16.70;99.90;;;;;;5042518;28;20029;-69
2022/10/05 02:25:45;;;;;;;1.15;0.60;;;16.70;99.90;;;;;;5044301;28;20042;-69
2022/10/05 02:28:22;;;;;;;3.97;1.10;;;16.70;99.90;;;;;;5042635;28;20041;-69
2022/10/05 02:30:55;;;;;;;5.95;1.60;;;16.70;99.90;;;;;;5042496;28;20029;-69
2022/10/05 02:33:27;;;;;;;2.88;1.30;;;16.70;99.90;;;;;;5043491;28;20360;-69
2022/10/05 02:35:54;;;;;;;2.05;0.80;;;16.60;99.90;;;;;;5039347;28;20084;-69
2022/10/05 02:38:31;;;;;;;2.03;1.17;;;16.70;99.90;;;;;;5034336;28;20068;-69
2022/10/05 02:41:14;;;;;;;1.55;1.08;;;16.60;99.90;;;;;;5034882;28;20037;-69
2022/10/05 02:44:07;;;;;;;2.45;1.15;;;16.60;99.90;;;;;;5034904;28;20033;-69
2022/10/05 02:46:59;;;;;;;2.97;1.10;;;16.60;99.90;;;;;;5034665;28;20026;-69
2022/10/05 02:49:38;;;;;;;1.30;1.10;;;16.60;99.90;;;;;;5034124;28;20112;-69
2022/10/05 02:52:11;;;;;;;2.47;1.35;;;16.60;99.90;;;;;;5034064;28;20064;-69
2022/10/05 02:55:09;;;;;;;1.48;1.23;;;16.60;99.90;;;;;;5034405;28;20057;-69
2022/10/05 02:57:45;;;;;;;3.15;1.33;;;16.60;99.90;;;;;;5034254;28;20451;-69
2022/10/05 03:00:17;;;;;;;4.13;1.50;;;16.60;99.90;;;;;;5034295;28;20053;-69
2022/10/05 03:03:07;;;;;;;3.05;1.30;;;16.60;99.90;;;;;;5034600;28;20471;-69
2022/10/05 03:06:21;;;;;;;5.43;1.40;;;16.60;99.90;;;;;;5034355;28;20025;-69
2022/10/05 03:09:08;;;;;;;1.83;1.10;;;16.60;99.90;;;;;;5006730;28;20034;-69
2022/10/05 03:12:15;;;;;;;3.65;1.90;;;16.60;99.90;;;;;;5018109;28;20045;-69
2022/10/05 03:15:19;;;;;;;4.47;1.30;;;16.60;99.90;;;;;;5031029;28;20781;-69
2022/10/05 03:18:22;;;;;;;3.13;1.30;;;16.60;99.90;;;;;;5033358;28;20052;-69
2022/10/05 03:21:29;;;;;;;2.47;1.40;;;16.50;99.90;;;;;;5033450;28;20124;-69
2022/10/05 03:24:13;;;;;;;3.13;1.40;;;16.60;99.90;;;;;;5030827;28;20379;-69
2022/10/05 03:26:47;;;;;;;3.20;1.40;;;16.50;99.90;;;;;;5034173;28;20360;-69
2022/10/05 03:29:44;;;;;;;4.93;1.52;;;16.50;99.90;;;;;;5034171;28;20029;-69
2022/10/05 03:32:28;;;;;;;2.88;1.52;;;16.50;99.90;;;;;;5043132;28;20256;-69
2022/10/05 03:35:18;;;;;;;2.88;1.20;;;16.50;99.90;;;;;;5053895;28;20040;-69
2022/10/05 03:38:18;;;;;;;3.33;1.50;;;16.50;99.90;;;;;;5053808;28;20032;-69
2022/10/05 03:40:52;;;;;;;7.07;2.17;;;16.50;99.90;;;;;;5042789;28;20022;-69
2022/10/05 03:43:37;;;;;;;3.72;1.30;;;16.50;99.90;;;;;;5033796;28;20509;-69
2022/10/05 03:46:11;;;;;;;3.20;1.27;;;16.40;99.90;;;;;;5033898;28;20426;-69
2022/10/05 03:49:07;;;;;;;6.63;2.63;;;16.40;99.90;;;;;;5033888;28;20087;-69
2022/10/05 03:51:41;;;;;;;2.40;1.35;;;16.40;99.90;;;;;;5033927;28;20447;-69
2022/10/05 03:54:23;;;;;;;7.25;3.13;;;16.40;99.90;;;;;;5033247;28;20068;-69
2022/10/05 03:56:54;;;;;;;4.63;2.25;;;16.40;99.90;;;;;;5032278;28;20021;-70
2022/10/05 03:59:22;;;;;;;2.70;1.48;;;16.40;99.90;;;;;;5033473;28;20137;-70
2022/10/05 04:02:25;;;;;;;4.30;1.33;;;16.40;99.90;;;;;;5033649;28;20087;-70
2022/10/05 04:05:08;;;;;;;4.88;2.20;;;16.40;99.90;;;;;;5033256;28;20040;-70
2022/10/05 04:07:36;;;;;;;6.68;2.38;;;16.50;99.90;;;;;;5032696;28;20061;-69
2022/10/05 04:10:08;;;;;;;4.25;2.47;;;16.50;99.90;;;;;;5033108;28;20048;-70
2022/10/05 04:12:46;;;;;;;;;;;16.50;99.90;;;;;;5031552;28;20045;-70
2022/10/05 04:15:53;;;;;;;6.90;3.05;;;16.50;99.90;;;;;;5033045;28;19908;-69
2022/10/05 04:18:35;;;;;;;10.65;4.10;;;16.40;99.90;;;;;;5025865;28;20107;-69
2022/10/05 04:21:10;;;;;;;6.70;3.13;;;16.50;99.90;;;;;;5032596;28;20529;-69
2022/10/05 04:24:00;;;;;;;2.67;1.58;;;16.50;99.90;;;;;;5029695;28;20267;-69
2022/10/05 04:26:49;;;;;;;3.63;1.98;;;16.50;99.90;;;;;;5032164;28;20376;-69
2022/10/05 04:29:38;;;;;;;3.92;1.65;;;16.40;99.90;;;;;;5012508;28;20504;-69
2022/10/05 04:32:34;;;;;;;5.25;2.08;;;16.40;99.90;;;;;;5027879;28;20072;-68
2022/10/05 04:35:11;;;;;;;4.20;2.45;;;16.40;99.90;;;;;;5032754;28;20083;-68
2022/10/05 04:38:16;;;;;;;4.03;1.77;;;16.30;99.90;;;;;;5031895;28;20509;-68
2022/10/05 04:40:56;;;;;;;5.38;2.65;;;16.30;99.90;;;;;;5032313;28;20134;-68
2022/10/05 04:43:53;;;;;;;3.58;1.63;;;16.30;99.90;;;;;;5030999;28;20036;-69
2022/10/05 04:46:30;;;;;;;2.45;1.70;;;16.30;99.90;;;;;;5030679;28;20064;-69
2022/10/05 04:49:32;;;;;;;7.25;2.42;;;16.30;99.90;;;;;;5031397;28;20022;-69
2022/10/05 04:52:09;;;;;;;5.28;2.08;;;16.30;99.90;;;;;;5031455;28;20067;-69
2022/10/05 04:55:03;;;;;;;6.72;3.15;;;16.20;99.90;;;;;;5032467;28;20030;-68
2022/10/05 04:57:43;;;;;;;5.95;3.17;;;16.30;99.90;;;;;;5012774;28;20061;-68
2022/10/05 05:00:14;;;;;;;6.22;1.90;;;16.20;99.90;;;;;;5012872;28;20053;-68
2022/10/05 05:03:26;;;;;;;15.73;6.50;;;16.30;99.90;;;;;;5032535;28;20451;-69
2022/10/05 05:05:57;;;;;;;8.73;4.20;;;16.30;99.90;;;;;;5028675;28;20030;-69
2022/10/05 05:08:40;;;;;;;3.03;1.88;;;16.30;99.90;;;;;;5032423;28;20041;-68
2022/10/05 05:11:28;;;;;;;2.67;1.55;;;16.30;99.90;;;;;;5029185;28;20053;-69
2022/10/05 05:14:17;;;;;;;4.95;2.03;;;16.30;99.90;;;;;;5035027;28;20029;-69
2022/10/05 05:16:47;;;;;;;4.43;2.45;;;16.30;99.90;;;;;;5031465;28;20033;-69
2022/10/05 05:19:27;;;;;;;4.18;2.15;;;16.30;99.90;;;;;;5030482;28;20052;-69
2022/10/05 05:21:56;;;;;;;3.05;1.83;;;16.20;99.90;;;;;;5026151;28;20029;-69
2022/10/05 05:24:34;;;;;;;4.18;2.00;;;16.30;99.90;;;;;;5032311;28;20029;-69
2022/10/05 05:27:09;;;;;;;5.22;2.33;;;16.20;99.90;;;;;;5031974;28;20025;-69
2022/10/05 05:29:55;;;;;;;3.67;2.20;;;16.20;99.90;;;;;;5031807;28;20028;-69
2022/10/05 05:32:53;;;;;;;12.27;4.32;;;16.30;99.90;;;;;;5032030;28;20041;-70
2022/10/05 05:36:04;;;;;;;2.70;1.63;;;16.20;99.90;;;;;;5029379;28;20045;-69
2022/10/05 05:38:32;;;;;;;2.15;1.33;;;16.30;99.90;;;;;;5031266;28;20495;-69
2022/10/05 05:41:29;;;;;;;2.15;1.27;;;16.30;99.90;;;;;;5036401;28;20044;-69
2022/10/05 05:44:23;;;;;;;3.13;1.83;;;16.20;99.90;;;;;;5005718;28;20045;-69
2022/10/05 05:47:07;;;;;;;2.78;1.73;;;16.20;99.90;;;;;;5036238;28;20148;-69
2022/10/05 05:49:57;;;;;;;5.55;1.30;;;16.20;99.90;;;;;;5036354;28;20025;-69
2022/10/05 05:53:02;;;;;;;4.80;2.50;;;16.30;99.90;;;;;;5036076;28;20108;-69
2022/10/05 05:55:34;;;;;;;6.93;3.40;;;16.20;99.90;;;;;;5012779;28;20061;-69
2022/10/05 05:58:22;;;;;;;4.68;1.30;;;16.20;99.90;;;;;;5035793;28;20092;-69
2022/10/05 06:01:02;;;;;;;4.53;1.77;;;16.30;99.90;;;;;;5034333;28;20029;-69
2022/10/05 06:03:39;;;;;;;5.20;1.40;;;16.20;99.90;;;;;;5035402;28;20029;-69
2022/10/05 06:06:12;;;;;;;8.50;2.08;;;16.20;99.90;;;;;;5035713;28;20053;-68
2022/10/05 06:08:47;;;;;;;2.20;1.30;;;16.20;99.90;;;;;;5035559;28;20107;-69
2022/10/05 06:11:30;;;;;;;3.75;1.40;;;16.20;99.90;;;;;;5035315;28;20045;-68
2022/10/05 06:14:00;;;;;;;2.70;1.10;;;16.20;99.90;;;;;;5021449;28;20078;-68
2022/10/05 06:16:41;;;;;;;3.85;1.48;;;16.20;99.90;;;;;;5033335;28;20061;-68
2022/10/05 06:19:27;;;;;;;5.00;2.08;;;16.30;99.90;;;;;;5033217;28;20029;-70
2022/10/05 06:21:59;;;;;;;3.10;1.83;;;16.30;99.90;;;;;;5022023;28;20022;-69
2022/10/05 06:25:03;;;;;;;2.17;1.30;;;16.30;99.90;;;;;;5039573;28;20105;-70
2022/10/05 06:27:37;;;;;;;6.00;2.65;;;16.30;99.90;;;;;;5024495;28;20374;-69
2022/10/05 06:30:21;;;;;;;7.90;1.70;;;16.40;99.90;;;;;;5035488;28;20030;-69
2022/10/05 06:33:01;;;;;;;2.72;1.70;;;16.40;99.90;;;;;;5035330;28;20047;-70
2022/10/05 06:35:49;;;;;;;1.27;1.00;;;16.40;99.90;;;;;;5035079;28;20025;-69
2022/10/05 06:38:48;;;;;;;2.28;1.40;;;16.50;99.90;;;;;;5035097;28;20116;-69
2022/10/05 06:41:23;;;;;;;2.47;1.50;;;16.50;99.90;;;;;;5031016;28;20120;-69
2022/10/05 06:43:57;;;;;;;3.35;1.20;;;16.50;99.90;;;;;;5034654;28;20035;-69
2022/10/05 06:46:48;;;;;;;2.85;1.15;;;16.50;99.90;;;;;;5032695;28;20033;-69
2022/10/05 06:49:22;;;;;;;3.20;1.13;;;16.50;99.90;;;;;;5034668;28;20049;-69
2022/10/05 06:51:50;;;;;;;1.55;1.17;;;16.50;99.90;;;;;;5033634;28;20037;-69
2022/10/05 06:54:37;;;;;;;3.58;1.02;;;16.50;99.90;;;;;;5034710;28;20029;-69
2022/10/05 06:57:36;;;;;;;3.42;1.45;;;16.50;99.90;;;;;;5034488;28;20026;-69
2022/10/05 07:00:20;;;;;;;2.63;1.13;;;16.60;99.90;;;;;;5021863;28;20034;-69
2022/10/05 07:03:10;;;;;;;2.05;1.15;;;16.60;99.90;;;;;;5035054;28;20490;-69
2022/10/05 07:05:51;;;;;;;3.50;1.23;;;16.60;99.90;;;;;;5034796;28;20072;-69
2022/10/05 07:08:22;;;;;;;4.65;1.08;;;16.60;99.90;;;;;;5032640;28;20041;-69
2022/10/05 07:11:05;;;;;;;2.45;0.95;;;16.60;99.90;;;;;;5033698;28;20027;-69
2022/10/05 07:13:49;;;;;;;4.38;1.02;;;16.60;99.90;;;;;;5033642;28;20029;-69
2022/10/05 07:16:35;;;;;;;3.92;1.38;;;16.60;99.90;;;;;;5032389;28;20123;-69
2022/10/05 07:19:19;;;;;;;3.40;1.58;;;16.70;99.90;;;;;;5028263;28;20052;-69
2022/10/05 07:22:03;;;;;;;3.63;1.58;;;16.70;99.90;;;;;;5017847;28;20030;-69
2022/10/05 07:24:50;;;;;;;2.10;1.23;;;16.70;99.90;;;;;;5034127;28;20391;-69
2022/10/05 07:27:19;;;;;;;3.38;1.33;;;16.80;99.90;;;;;;5034071;28;20463;-69
2022/10/05 07:29:57;;;;;;;3.47;1.50;;;16.80;99.90;;;;;;5033973;28;20451;-69
2022/10/05 07:32:48;;;;;;;5.75;1.73;;;16.80;99.90;;;;;;5033954;28;20426;-69
2022/10/05 07:39:00;;;;;;;3.47;1.70;;;16.90;99.90;;;;;;5032712;28;20096;-69
2022/10/05 07:41:42;;;;;;;1.10;0.93;;;17.10;99.90;;;;;;5033746;28;20056;-69
2022/10/05 07:44:24;;;;;;;3.83;1.75;;;17.10;99.90;;;;;;5033671;28;20026;-69
2022/10/05 07:46:59;;;;;;;3.05;1.27;;;17.10;99.90;;;;;;5033963;28;20033;-68
2022/10/05 07:49:50;;;;;;;2.83;1.38;;;17.10;99.90;;;;;;5033050;28;20034;-69
2022/10/05 07:52:30;;;;;;;8.05;2.70;;;17.20;99.90;;;;;;5033197;28;20478;-69
2022/10/05 07:54:55;;;;;;;2.17;1.50;;;17.20;99.90;;;;;;5033703;28;20040;-69
2022/10/05 07:57:40;;;;;;;8.63;3.00;;;17.30;99.90;;;;;;5029755;28;20037;-69
2022/10/05 08:00:29;;;;;;;4.35;1.95;;;17.30;99.90;;;;;;5033760;28;20120;-68
2022/10/05 08:03:32;;;;;;;2.45;1.38;;;17.40;99.90;;;;;;5029805;28;20408;-69
2022/10/05 08:05:58;;;;;;;;;;;17.50;99.90;;;;;;5020284;28;20076;-69
2022/10/05 08:08:52;;;;;;;4.25;2.08;;;17.60;99.90;;;;;;5033278;28;19945;-69
2022/10/05 08:11:26;;;;;;;7.90;2.03;;;17.60;99.90;;;;;;5033156;28;20054;-69
2022/10/05 08:14:21;;;;;;;8.07;2.53;;;17.70;99.90;;;;;;5032862;28;20040;-69
2022/10/05 08:16:50;;;;;;;6.45;3.35;;;17.70;99.90;;;;;;5018889;28;20341;-69
2022/10/05 08:19:25;;;;;;;16.48;7.97;;;17.70;99.90;;;;;;5033121;28;20146;-69
2022/10/05 08:22:01;;;;;;;4.97;2.10;;;17.70;99.90;;;;;;5033346;28;20035;-68
2022/10/05 08:24:48;;;;;;;6.45;2.30;;;17.70;99.90;;;;;;5033254;28;20029;-68
2022/10/05 08:27:24;;;;;;;4.00;1.10;;;17.70;99.90;;;;;;5029038;28;20095;-69
2022/10/05 08:30:00;;;;;;;12.65;4.43;;;17.80;99.90;;;;;;5032898;28;20036;-69
2022/10/05 08:32:42;;;;;;;7.15;2.13;;;17.80;99.90;;;;;;5032819;28;20368;-69
2022/10/05 08:35:26;;;;;;;7.22;3.05;;;17.80;99.90;;;;;;5029343;28;20459;-68
2022/10/05 08:37:53;;;;;;;2.67;1.75;;;17.70;99.90;;;;;;5031845;28;20033;-69
2022/10/05 08:40:29;;;;;;;4.97;1.70;;;17.70;99.90;;;;;;5032708;28;20097;-69
2022/10/05 08:43:24;;;;;;;6.55;2.63;;;17.70;99.90;;;;;;5030768;28;20167;-69
2022/10/05 08:46:18;;;;;;;4.43;1.90;;;17.70;99.90;;;;;;5028134;28;20044;-69
2022/10/05 08:48:52;;;;;;;7.45;2.35;;;17.70;99.90;;;;;;5032600;28;20034;-69
2022/10/05 08:51:26;;;;;;;6.45;2.22;;;17.70;99.90;;;;;;5031967;28;20108;-69
2022/10/05 08:54:16;;;;;;;4.45;2.22;;;17.80;99.90;;;;;;5031377;28;20112;-69
2022/10/05 08:57:14;;;;;;;4.07;1.67;;;17.90;99.90;;;;;;5029169;28;20464;-69
2022/10/05 08:59:43;;;;;;;3.33;1.73;;;18.00;99.90;;;;;;5032131;28;20384;-70
2022/10/05 09:02:31;;;;;;;6.03;2.28;;;18.00;99.90;;;;;;5031762;28;20028;-69
2022/10/05 09:05:18;;;;;;;7.47;2.25;;;18.00;99.90;;;;;;5032100;28;20054;-70
2022/10/05 09:08:07;;;;;;;3.35;1.52;;;18.10;99.90;;;;;;5032431;28;20107;-68
2022/10/05 09:11:10;;;;;;;5.03;1.52;;;18.20;99.90;;;;;;5031537;28;20379;-68
2022/10/05 09:13:50;;;;;;;2.08;1.48;;;18.10;99.90;;;;;;5031942;28;20475;-69
2022/10/05 09:16:34;;;;;;;4.30;2.13;;;18.20;99.90;;;;;;5030687;28;20025;-69
2022/10/05 09:19:21;;;;;;;3.88;1.73;;;18.20;99.90;;;;;;5032060;28;20033;-67
2022/10/05 09:21:53;;;;;;;6.03;2.70;;;18.20;99.90;;;;;;5032052;28;20034;-70
2022/10/05 09:24:47;;;;;;;4.80;1.98;;;18.30;99.90;;;;;;5032405;28;20492;-68
2022/10/05 09:27:16;;;;;;;5.53;2.03;;;18.20;99.90;;;;;;5031768;28;20073;-68
2022/10/05 09:30:10;;;;;;;2.78;1.52;;;18.30;99.90;;;;;;5031953;28;20069;-68
2022/10/05 09:32:50;;;;;;;3.70;1.88;;;18.20;99.90;;;;;;5031780;28;20037;-68
2022/10/05 09:35:54;;;;;;;5.72;2.33;;;18.20;99.90;;;;;;5031199;28;20033;-68
2022/10/05 09:39:00;;;;;;;3.05;1.52;;;18.20;99.90;;;;;;5031093;28;20037;-68
2022/10/05 09:41:42;;;;;;;1.90;1.15;;;18.30;99.90;;;;;;5031088;28;20095;-68
2022/10/05 09:44:42;;;;;;;1.45;1.10;;;18.30;99.90;;;;;;5031993;28;20025;-68
2022/10/05 09:47:13;;;;;;;6.15;2.10;;;18.30;99.90;;;;;;5017072;28;20424;-68
2022/10/05 09:49:54;;;;;;;4.80;2.10;;;18.30;99.90;;;;;;5031605;28;20029;-68
2022/10/05 09:52:38;;;;;;;3.42;1.73;;;18.40;99.90;;;;;;5030927;28;20478;-68
2022/10/05 09:55:46;;;;;;;4.90;1.70;;;18.40;99.90;;;;;;5030822;28;20037;-68
2022/10/05 09:58:29;;;;;;;4.38;1.50;;;18.50;99.90;;;;;;5027844;28;20037;-68
2022/10/05 10:01:09;;;;;;;2.97;1.35;;;18.50;99.90;;;;;;5031307;28;20040;-68
2022/10/05 10:04:08;;;;;;;3.33;1.40;;;18.40;99.90;;;;;;5031429;28;20455;-68
2022/10/05 10:06:53;;;;;;;2.95;1.30;;;18.30;99.90;;;;;;5029590;28;20033;-68
2022/10/05 10:09:34;;;;;;;3.25;1.20;;;18.30;99.90;;;;;;5015380;28;20047;-68
2022/10/05 10:12:28;;;;;;;5.23;1.67;;;18.30;99.90;;;;;;5030705;28;20052;-68
2022/10/05 10:14:54;;;;;;;1.95;1.20;;;18.40;99.90;;;;;;5019652;28;20042;-68
2022/10/05 10:17:30;;;;;;;3.78;1.38;;;18.40;99.90;;;;;;5029762;28;20033;-69
2022/10/05 10:20:21;;;;;;;3.33;1.20;;;18.30;99.90;;;;;;5026985;28;20142;-69
2022/10/05 10:23:14;;;;;;;3.00;1.15;;;18.20;99.90;;;;;;5029308;28;20733;-69
2022/10/05 10:25:56;;;;;;;6.60;1.50;;;18.20;99.90;;;;;;5031087;28;20033;-69
2022/10/05 10:28:27;;;;;;;3.58;1.30;;;18.20;99.90;;;;;;5035040;28;20110;-69
2022/10/05 10:31:17;;;;;;;1.87;1.30;;;18.20;99.90;;;;;;5034589;28;20045;-69
2022/10/05 10:34:41;;;;;;;4.38;1.45;;;18.10;99.90;;;;;;5032515;28;20277;-69
2022/10/05 10:37:38;;;;;;;4.40;1.50;;;18.00;99.90;;;;;;4994046;28;20037;-69
2022/10/05 10:40:22;;;;;;;3.40;1.55;;;18.10;99.90;;;;;;5033586;28;20091;-68
2022/10/05 10:43:02;;;;;;;4.07;1.50;;;18.10;99.90;;;;;;5034652;28;20056;-69
2022/10/05 10:45:47;;;;;;;3.08;1.70;;;18.20;99.90;;;;;;5035086;28;20026;-68
2022/10/05 10:48:18;;;;;;;2.03;1.10;;;18.20;99.90;;;;;;5034814;28;20029;-69
2022/10/05 10:50:57;;;;;;;4.90;1.10;;;18.20;99.90;;;;;;5034248;28;20463;-69
2022/10/05 10:53:49;;;;;;;4.70;1.25;;;18.30;99.90;;;;;;5033549;28;20539;-69
2022/10/05 10:56:33;;;;;;;2.95;1.02;;;18.30;99.90;;;;;;5012174;28;20037;-68
2022/10/05 10:59:38;;;;;;;4.05;1.15;;;18.30;99.90;;;;;;5034725;28;20053;-69
2022/10/05 11:02:43;;;;;;;3.40;1.08;;;18.30;99.90;;;;;;5028259;28;20025;-69
2022/10/05 11:05:26;;;;;;;7.45;2.78;;;18.30;99.90;;;;;;5033996;28;20031;-69
2022/10/05 11:08:08;;;;;;;6.10;1.70;;;18.30;99.90;;;;;;5014700;28;20452;-69
2022/10/05 11:10:43;;;;;;;;;;;18.30;99.90;;;;;;5015184;28;20463;-69
2022/10/05 11:13:35;;;;;;;4.57;1.95;;;18.30;99.90;;;;;;5022820;28;19921;-69
2022/10/05 11:16:21;;;;;;;6.20;2.42;;;18.20;99.90;;;;;;5034729;28;20180;-69
2022/10/05 11:19:14;;;;;;;3.10;1.38;;;18.30;99.90;;;;;;5034612;28;20395;-69
2022/10/05 11:22:18;;;;;;;3.47;1.48;;;18.20;99.90;;;;;;5034569;28;20060;-69
2022/10/05 11:25:02;;;;;;;5.45;2.13;;;18.10;99.90;;;;;;5034471;28;20056;-69
2022/10/05 11:27:36;;;;;;;3.28;2.00;;;18.10;99.90;;;;;;5034320;28;20053;-69
2022/10/05 11:30:34;;;;;;;5.40;1.52;;;18.10;99.90;;;;;;5031703;28;20131;-69
2022/10/05 11:33:25;;;;;;;4.50;1.95;;;18.20;99.90;;;;;;5017671;28;20033;-69
2022/10/05 11:36:08;;;;;;;5.47;1.58;;;18.20;99.90;;;;;;5033755;28;20095;-69
2022/10/05 11:39:02;;;;;;;2.95;1.50;;;18.10;99.90;;;;;;5033045;28;20033;-69
2022/10/05 11:42:09;;;;;;;4.18;1.60;;;18.20;99.90;;;;;;5032850;28;20036;-69
2022/10/05 11:44:37;;;;;;;5.40;1.83;;;18.20;99.90;;;;;;5023116;28;20047;-69
2022/10/05 11:47:30;;;;;;;4.90;1.80;;;18.30;99.90;;;;;;5022470;28;20073;-69
2022/10/05 11:50:17;;;;;;;2.50;1.55;;;18.30;99.90;;;;;;5033927;28;20052;-69
2022/10/05 11:53:05;;;;;;;5.88;1.95;;;18.30;99.90;;;;;;5017290;28;20117;-68
2022/10/05 11:55:47;;;;;;;4.22;1.65;;;18.40;99.90;;;;;;5033002;28;20163;-69
2022/10/05 11:58:24;;;;;;;4.63;1.85;;;18.40;99.90;;;;;;5033621;28;20164;-69
2022/10/05 12:01:13;;;;;;;3.55;1.42;;;18.50;99.90;;;;;;5033632;28;20388;-69
2022/10/05 12:04:17;;;;;;;3.70;1.02;;;18.50;99.90;;;;;;5033507;28;20033;-69
2022/10/05 12:07:19;;;;;;;4.70;1.50;;;18.60;99.90;;;;;;5033226;28;20029;-69
2022/10/05 12:12:44;;;;;;;;;;;18.90;99.90;;;;;;5030165;28;20392;-68
2022/10/05 12:15:16;;;;;;;;;;;19.00;99.90;;;;;;5027944;28;19916;-69
2022/10/05 12:17:54;;;;;;;;;;;19.10;99.90;;;;;;5033563;28;19909;-69
2022/10/05 12:20:25;;;;;;;;;;;19.20;99.90;;;;;;5033531;28;19992;-68
2022/10/05 12:22:56;;;;;;;;;;;19.30;99.90;;;;;;5033696;28;19968;-68
2022/10/05 12:25:45;;;;;;;;;;;19.40;99.90;;;;;;5033524;28;19908;-69
2022/10/05 12:28:14;;;;;;;;;;;19.50;99.90;;;;;;5027394;28;19905;-68
2022/10/05 12:30:56;;;;;;;;;;;19.60;99.90;;;;;;5033123;28;19932;-69
2022/10/05 12:33:41;;;;;;;;;;;19.70;99.90;;;;;;5032267;28;19915;-68
2022/10/05 12:36:12;;;;;;;;;;;19.80;99.90;;;;;;5033316;28;19916;-68
2022/10/05 12:38:45;;;;;;;;;;;19.90;99.90;;;;;;5033410;28;19913;-68
2022/10/05 12:41:18;;;;;;;;;;;20.10;99.90;;;;;;5033358;28;19913;-69
2022/10/05 12:43:53;;;;;;;;;;;20.20;99.90;;;;;;5033437;28;19999;-68
2022/10/05 12:46:22;;;;;;;;;;;20.20;99.90;;;;;;5033509;28;19905;-68
2022/10/05 12:49:01;;;;;;;;;;;20.20;99.90;;;;;;5033506;28;20313;-69
2022/10/05 12:51:30;;;;;;;;;;;20.30;99.90;;;;;;5033123;28;19905;-68
2022/10/05 12:54:03;;;;;;;;;;;20.30;99.90;;;;;;5034114;28;19909;-68
2022/10/05 12:56:28;;;;;;;;;;;20.30;99.90;;;;;;5032991;28;19906;-68
2022/10/05 12:58:54;;;;;;;;;;;20.40;99.90;;;;;;5033205;28;19919;-69
2022/10/05 13:01:24;;;;;;;;;;;20.40;99.90;;;;;;5033336;28;19992;-68
2022/10/05 13:04:08;;;;;;;;;;;20.50;99.90;;;;;;5033204;28;19916;-68
2022/10/05 13:06:34;;;;;;;;;;;20.60;99.90;;;;;;5033126;28;19913;-69
2022/10/05 13:09:02;;;;;;;;;;;20.60;99.90;;;;;;5033275;28;19951;-69
2022/10/05 13:11:46;;;;;;;;;;;20.50;99.90;;;;;;5033057;28;19917;-68
2022/10/05 13:14:11;;;;;;;;;;;20.50;99.90;;;;;;5033059;28;19912;-69
2022/10/05 13:16:41;;;;;;;;;;;20.50;99.90;;;;;;5032996;28;19905;-68
2022/10/05 13:19:15;;;;;;;;;;;20.50;99.90;;;;;;5032856;28;20323;-69
2022/10/05 13:21:46;;;;;;;;;;;20.60;99.90;;;;;;5032865;28;19905;-69
2022/10/05 13:24:28;;;;;;;;;;;20.70;99.90;;;;;;5032932;28;19909;-69
2022/10/05 13:26:59;;;;;;;;;;;20.80;99.90;;;;;;5032415;28;19905;-69
2022/10/05 13:29:39;;;;;;;;;;;20.80;99.90;;;;;;5032861;28;19905;-68
2022/10/05 13:32:14;;;;;;;;;;;20.80;99.90;;;;;;5032397;28;20710;-68
2022/10/05 13:34:53;;;;;;;;;;;20.70;99.90;;;;;;5032824;28;19932;-68
2022/10/05 13:37:31;;;;;;;;;;;20.60;99.90;;;;;;5032820;28;19952;-68
2022/10/05 13:39:59;;;;;;;;;;;20.60;99.90;;;;;;5032705;28;19913;-68
2022/10/05 13:42:31;;;;;;;;;;;20.60;99.90;;;;;;5032830;28;20047;-68
2022/10/05 13:45:11;;;;;;;;;;;20.50;99.90;;;;;;5033268;28;19905;-69
2022/10/05 13:47:51;;;;;;;;;;;20.40;99.90;;;;;;5032181;28;19905;-68
2022/10/05 13:50:23;;;;;;;;;;;20.20;99.90;;;;;;5032586;28;19912;-68
2022/10/05 13:52:57;;;;;;;;;;;20.10;99.90;;;;;;5031194;28;19951;-68
2022/10/05 13:55:32;;;;;;;;;;;20.00;99.90;;;;;;5032128;28;19909;-68
2022/10/05 13:58:04;;;;;;;;;;;20.00;99.90;;;;;;5032031;28;19920;-69
2022/10/05 14:00:32;;;;;;;;;;;19.90;99.90;;;;;;5032146;28;19909;-68
2022/10/05 14:02:59;;;;;;;;;;;20.00;99.90;;;;;;5035669;28;20326;-67
2022/10/05 14:05:28;;;;;;;;;;;20.00;99.90;;;;;;5036373;28;19921;-69
2022/10/05 14:07:55;;;;;;;;;;;20.00;99.90;;;;;;5036355;28;19905;-69
2022/10/05 14:10:33;;;;;;;;;;;20.10;99.90;;;;;;5036520;28;19909;-68
2022/10/05 14:12:59;;;;;;;;;;;20.00;99.90;;;;;;5036487;28;20367;-68
2022/10/05 14:15:29;;;;;;;;;;;20.10;99.90;;;;;;5036462;28;20660;-69
2022/10/05 14:17:55;;;;;;;;;;;20.20;99.90;;;;;;5035939;28;19904;-69
2022/10/05 14:20:30;;;;;;;;;;;20.20;99.90;;;;;;5036763;28;20247;-68
2022/10/05 14:23:00;;;;;;;;;;;20.20;99.90;;;;;;5036139;28;19928;-68
2022/10/05 14:25:26;;;;;;;;;;;20.10;99.90;;;;;;5036286;28;19908;-68
2022/10/05 14:28:01;;;;;;;;;;;20.10;99.90;;;;;;5036170;28;19951;-69
2022/10/05 14:30:31;;;;;;;;;;;20.10;99.90;;;;;;5042036;28;19909;-67
2022/10/05 14:33:02;;;;;;;;;;;19.90;99.90;;;;;;5043584;28;19909;-68
2022/10/05 14:35:43;;;;;;;;;;;19.80;99.90;;;;;;5042520;28;19909;-68
2022/10/05 14:38:20;;;;;;;;;;;19.80;99.90;;;;;;5042847;28;19937;-69
2022/10/05 14:41:01;;;;;;;;;;;19.70;99.90;;;;;;5040424;28;19967;-69